Detall de PIREP

Printer-friendly versionPDF version

[2014/10/23 07:23:00]
Flight IATA:CT3408
Pilot Number:042
Company ICAO:CAT
Aircraft Type:B463/A
PAX:32
Aircraft Registration:PAX
Departing Airport: LEBL
Destination Airport: LSGG
Alternate Airport:LFLL
Online: VATSIM
Route:DALIN/N420F300- UN870 DIBER/N450F300 UN870 MAXIR UN853 OKTET/N310F280- UN853 KINES
Flight Level:F340
No Slew and time accel
No pause
Crash detect
Detect pilot in Cockpit between each 30 and 45 minutes
07:23 Zero fuel Weight: 80445 Lbs, Fuel Weight: 20597 Lbs
07:23 VATSIM:LEBL 230600Z 34010KT 280V020 9999 FEW025 13/06 Q1021 NOSIG
07:23 VATSIM:LSGG 230620Z VRB01KT 9999 MIFG NSC 03/03 Q1026 NOSIG
07:31 Parking Brakes off
07:42 Take-off
07:42 Take off Weight: 99681 Lbs
07:42 Wind: 336º @ 010 Knots Heading: 249º
07:42 POS N41º 17´ 07´´ E002º 05´ 02´´
07:42 Flaps:2 at 155 Knots
07:42 Gear Up: 153 Knots
07:42 Flaps:1 at 145 Knots
07:43 Flaps:0 at 196 Knots
07:57 Wind:344º@052 Knots Heading: 038º Ground Speed: 330 Knots Altitude 26479 ft
08:04 TOC
08:04 Fuel Weight: 16086 Lb
08:12 Wind:342º@081 Knots Heading: 030º Ground Speed: 358 Knots Altitude 33956 ft
08:27 Wind:342º@081 Knots Heading: 032º Ground Speed: 361 Knots Altitude 33776 ft
08:35 TOD
08:35 Fuel Weight: 14097 Lb
08:35 TOC
08:35 Fuel Weight: 14085 Lb
08:42 Wind:354º@095 Knots Heading: 003º Ground Speed: 313 Knots Altitude 34048 ft
08:47 TOD
08:47 Fuel Weight: 13340 Lb
08:57 Wind:358º@069 Knots Heading: 351º Ground Speed: 247 Knots Altitude 24701 ft
09:08 Flaps:1 at 179 Knots
09:08 Flaps:2 at 171 Knots
09:12 Wind:350º@009 Knots Heading: 022º Ground Speed: 174 Knots Altitude 5298 ft
09:13 Gear Down: 172 Knots
09:13 Flaps:3 at 174 Knots
09:14 Flaps:4 at 170 Knots
09:17 TouchDown:Rate -273 ft/min Speed: 117 Knots
09:17 VATSIM:LSGG 230750Z VRB02KT 9999 FEW015 BKN090 07/06 Q1026 NOSIG
09:17 Land
09:17 Wind:359º@002 Knots
09:17 Heading: 043º
09:17 Flight Duration: 01:35
09:17 Landing Weight: 92635 Lbs
09:17 POS N46º 14´ 14´´ E006º 06´ 28´´
09:21 Parking brakes on
09:21 Block to Block Duration: 01:50
09:21 Final Fuel: 11781 Lbls
09:21 Spent Fuel: 8816 Lbls
09:21 Flight Length: 474 NM
09:21 TOD Land Length: 114 NM

Exportar CSV

Powered by Drupal - Modified by Danger4k